sensor_id;sensor_type;location;lat;lon;timestamp;pressure;altitude;pressure_sealevel;temperature;humidity
8653;BME280;4364;52.426;9.424;2023-03-18T00:01:04;100315.41;;;9.94;72.76
8653;BME280;4364;52.426;9.424;2023-03-18T00:03:34;100320.03;;;9.93;72.90
8653;BME280;4364;52.426;9.424;2023-03-18T00:08:30;100306.69;;;9.97;72.52
8653;BME280;4364;52.426;9.424;2023-03-18T00:10:58;100306.47;;;9.93;72.26
8653;BME280;4364;52.426;9.424;2023-03-18T00:13:24;100309.97;;;9.94;71.94
8653;BME280;4364;52.426;9.424;2023-03-18T00:15:51;100311.84;;;9.98;71.65
8653;BME280;4364;52.426;9.424;2023-03-18T00:18:18;100314.56;;;9.98;71.67
8653;BME280;4364;52.426;9.424;2023-03-18T00:20:45;100320.00;;;9.98;70.80
8653;BME280;4364;52.426;9.424;2023-03-18T00:23:11;100320.25;;;10.02;71.28
8653;BME280;4364;52.426;9.424;2023-03-18T00:25:38;100322.44;;;10.00;70.70
8653;BME280;4364;52.426;9.424;2023-03-18T00:28:06;100321.69;;;9.94;71.12
8653;BME280;4364;52.426;9.424;2023-03-18T00:30:36;100320.31;;;9.92;71.20
8653;BME280;4364;52.426;9.424;2023-03-18T00:33:03;100332.84;;;9.88;71.77
8653;BME280;4364;52.426;9.424;2023-03-18T00:35:30;100326.63;;;9.82;72.21
8653;BME280;4364;52.426;9.424;2023-03-18T00:37:57;100331.81;;;9.78;72.51
8653;BME280;4364;52.426;9.424;2023-03-18T00:40:24;100324.50;;;9.74;73.55
8653;BME280;4364;52.426;9.424;2023-03-18T00:43:09;100333.25;;;9.66;74.64
8653;BME280;4364;52.426;9.424;2023-03-18T00:45:37;100327.53;;;9.62;74.97
8653;BME280;4364;52.426;9.424;2023-03-18T00:48:04;100332.72;;;9.58;75.75
8653;BME280;4364;52.426;9.424;2023-03-18T00:50:30;100340.34;;;9.56;76.75
8653;BME280;4364;52.426;9.424;2023-03-18T00:52:57;100336.28;;;9.54;76.65
8653;BME280;4364;52.426;9.424;2023-03-18T00:55:25;100339.78;;;9.59;76.46
8653;BME280;4364;52.426;9.424;2023-03-18T00:57:53;100342.22;;;9.61;76.69
8653;BME280;4364;52.426;9.424;2023-03-18T01:00:20;100347.63;;;9.66;76.09
8653;BME280;4364;52.426;9.424;2023-03-18T01:02:46;100359.75;;;9.84;75.29
8653;BME280;4364;52.426;9.424;2023-03-18T01:05:14;100353.72;;;9.97;74.89
8653;BME280;4364;52.426;9.424;2023-03-18T01:07:42;100355.66;;;10.31;73.53
8653;BME280;4364;52.426;9.424;2023-03-18T01:10:10;100360.00;;;10.27;74.12
8653;BME280;4364;52.426;9.424;2023-03-18T01:12:39;100348.91;;;10.24;75.03
8653;BME280;4364;52.426;9.424;2023-03-18T01:15:09;100350.78;;;10.28;74.97
8653;BME280;4364;52.426;9.424;2023-03-18T01:17:38;100350.78;;;10.28;76.24
8653;BME280;4364;52.426;9.424;2023-03-18T01:20:05;100338.06;;;10.18;77.40
8653;BME280;4364;52.426;9.424;2023-03-18T01:22:32;100338.03;;;10.24;77.49
8653;BME280;4364;52.426;9.424;2023-03-18T01:24:58;100346.50;;;10.17;78.92
8653;BME280;4364;52.426;9.424;2023-03-18T01:27:32;100340.81;;;10.13;80.04
8653;BME280;4364;52.426;9.424;2023-03-18T01:29:59;100339.75;;;10.14;80.77
8653;BME280;4364;52.426;9.424;2023-03-18T01:32:27;100341.63;;;10.14;81.74
8653;BME280;4364;52.426;9.424;2023-03-18T01:34:54;100355.13;;;10.29;82.86
8653;BME280;4364;52.426;9.424;2023-03-18T01:37:20;100353.97;;;10.41;82.62
8653;BME280;4364;52.426;9.424;2023-03-18T01:39:54;100355.16;;;10.24;83.60
8653;BME280;4364;52.426;9.424;2023-03-18T01:42:22;100355.75;;;10.16;85.28
8653;BME280;4364;52.426;9.424;2023-03-18T01:44:49;100351.16;;;10.11;86.59
8653;BME280;4364;52.426;9.424;2023-03-18T01:47:16;100359.38;;;10.01;87.43
8653;BME280;4364;52.426;9.424;2023-03-18T01:49:50;100354.22;;;9.99;88.84
8653;BME280;4364;52.426;9.424;2023-03-18T01:52:25;100345.59;;;9.87;90.26
8653;BME280;4364;52.426;9.424;2023-03-18T01:55:03;100350.53;;;9.80;91.18
8653;BME280;4364;52.426;9.424;2023-03-18T01:57:31;100348.94;;;9.79;92.04
8653;BME280;4364;52.426;9.424;2023-03-18T01:59:59;100354.66;;;9.72;93.47
8653;BME280;4364;52.426;9.424;2023-03-18T02:02:28;100355.97;;;9.80;93.18
8653;BME280;4364;52.426;9.424;2023-03-18T02:04:58;100349.41;;;9.91;94.14
8653;BME280;4364;52.426;9.424;2023-03-18T02:07:34;100353.22;;;9.85;94.76
8653;BME280;4364;52.426;9.424;2023-03-18T02:10:05;100352.50;;;9.69;97.04
8653;BME280;4364;52.426;9.424;2023-03-18T02:12:36;100352.50;;;9.69;97.74
8653;BME280;4364;52.426;9.424;2023-03-18T02:15:12;100357.13;;;9.63;99.79
8653;BME280;4364;52.426;9.424;2023-03-18T02:17:42;100347.34;;;9.68;99.84
8653;BME280;4364;52.426;9.424;2023-03-18T02:20:35;100347.69;;;9.56;100.00
8653;BME280;4364;52.426;9.424;2023-03-18T02:23:20;100349.59;;;9.50;100.00
8653;BME280;4364;52.426;9.424;2023-03-18T02:25:56;100347.44;;;9.47;100.00
8653;BME280;4364;52.426;9.424;2023-03-18T02:28:27;100343.63;;;9.48;100.00
8653;BME280;4364;52.426;9.424;2023-03-18T02:31:01;100338.22;;;9.43;100.00
8653;BME280;4364;52.426;9.424;2023-03-18T02:33:35;100357.50;;;9.41;100.00
8653;BME280;4364;52.426;9.424;2023-03-18T02:36:08;100354.81;;;9.36;100.00
8653;BME280;4364;52.426;9.424;2023-03-18T02:38:41;100359.16;;;9.37;100.00
8653;BME280;4364;52.426;9.424;2023-03-18T02:41:17;100362.41;;;9.34;100.00
8653;BME280;4364;52.426;9.424;2023-03-18T02:43:45;100356.44;;;9.37;100.00
8653;BME280;4364;52.426;9.424;2023-03-18T02:46:30;100362.97;;;9.31;100.00
8653;BME280;4364;52.426;9.424;2023-03-18T02:48:59;100364.91;;;9.25;100.00
8653;BME280;4364;52.426;9.424;2023-03-18T02:51:29;100361.63;;;9.23;100.00
8653;BME280;4364;52.426;9.424;2023-03-18T02:54:00;100366.53;;;9.21;100.00
8653;BME280;4364;52.426;9.424;2023-03-18T02:56:28;100368.72;;;9.19;100.00
8653;BME280;4364;52.426;9.424;2023-03-18T02:58:55;100373.31;;;9.24;100.00
8653;BME280;4364;52.426;9.424;2023-03-18T03:01:23;100374.38;;;9.23;100.00
8653;BME280;4364;52.426;9.424;2023-03-18T03:03:50;100367.06;;;9.18;100.00
8653;BME280;4364;52.426;9.424;2023-03-18T03:06:17;100367.88;;;9.24;100.00
8653;BME280;4364;52.426;9.424;2023-03-18T03:08:44;100366.81;;;9.15;100.00
8653;BME280;4364;52.426;9.424;2023-03-18T03:11:11;100367.34;;;9.17;100.00
8653;BME280;4364;52.426;9.424;2023-03-18T03:13:41;100369.25;;;9.21;100.00
8653;BME280;4364;52.426;9.424;2023-03-18T03:16:10;100374.66;;;9.26;100.00
8653;BME280;4364;52.426;9.424;2023-03-18T03:18:37;100374.09;;;9.30;100.00
8653;BME280;4364;52.426;9.424;2023-03-18T03:21:05;100375.19;;;9.23;100.00
8653;BME280;4364;52.426;9.424;2023-03-18T03:23:32;100371.69;;;9.18;100.00
8653;BME280;4364;52.426;9.424;2023-03-18T03:25:58;100371.44;;;9.14;100.00
8653;BME280;4364;52.426;9.424;2023-03-18T03:28:27;100372.50;;;9.18;100.00
8653;BME280;4364;52.426;9.424;2023-03-18T03:30:54;100375.75;;;9.15;100.00
8653;BME280;4364;52.426;9.424;2023-03-18T03:33:21;100374.69;;;9.16;100.00
8653;BME280;4364;52.426;9.424;2023-03-18T03:35:48;100374.41;;;9.18;100.00
8653;BME280;4364;52.426;9.424;2023-03-18T03:38:15;100382.84;;;9.11;100.00
8653;BME280;4364;52.426;9.424;2023-03-18T03:40:41;100378.47;;;9.10;100.00
8653;BME280;4364;52.426;9.424;2023-03-18T03:43:11;100367.09;;;9.08;100.00
8653;BME280;4364;52.426;9.424;2023-03-18T03:45:39;100366.28;;;9.07;100.00
8653;BME280;4364;52.426;9.424;2023-03-18T03:48:07;100369.53;;;9.09;100.00
8653;BME280;4364;52.426;9.424;2023-03-18T03:50:36;100372.53;;;9.08;100.00
8653;BME280;4364;52.426;9.424;2023-03-18T03:53:03;100373.88;;;9.11;100.00
8653;BME280;4364;52.426;9.424;2023-03-18T03:55:30;100373.63;;;9.12;100.00
8653;BME280;4364;52.426;9.424;2023-03-18T03:57:57;100371.16;;;9.16;100.00
8653;BME280;4364;52.426;9.424;2023-03-18T04:00:25;100370.63;;;9.19;100.00
8653;BME280;4364;52.426;9.424;2023-03-18T04:02:52;100388.25;;;9.16;100.00
8653;BME280;4364;52.426;9.424;2023-03-18T04:05:22;100382.25;;;9.30;100.00
8653;BME280;4364;52.426;9.424;2023-03-18T04:07:50;100383.06;;;9.25;100.00
8653;BME280;4364;52.426;9.424;2023-03-18T04:10:22;100385.78;;;9.25;100.00
8653;BME280;4364;52.426;9.424;2023-03-18T04:12:49;100387.66;;;9.30;100.00
8653;BME280;4364;52.426;9.424;2023-03-18T04:15:17;100392.56;;;9.27;100.00
8653;BME280;4364;52.426;9.424;2023-03-18T04:17:48;100392.84;;;9.26;100.00
8653;BME280;4364;52.426;9.424;2023-03-18T04:20:17;100393.09;;;9.24;100.00
8653;BME280;4364;52.426;9.424;2023-03-18T04:22:45;100392.03;;;9.25;100.00
8653;BME280;4364;52.426;9.424;2023-03-18T04:25:12;100385.22;;;9.28;100.00
8653;BME280;4364;52.426;9.424;2023-03-18T04:27:42;100392.00;;;9.31;100.00
8653;BME280;4364;52.426;9.424;2023-03-18T04:30:12;100392.84;;;9.26;100.00
8653;BME280;4364;52.426;9.424;2023-03-18T04:32:55;100392.56;;;9.22;100.00
8653;BME280;4364;52.426;9.424;2023-03-18T04:35:22;100401.47;;;9.38;100.00
8653;BME280;4364;52.426;9.424;2023-03-18T04:37:49;100401.50;;;9.28;100.00
8653;BME280;4364;52.426;9.424;2023-03-18T04:40:16;100397.47;;;9.25;100.00
8653;BME280;4364;52.426;9.424;2023-03-18T04:42:44;100399.59;;;9.28;100.00
8653;BME280;4364;52.426;9.424;2023-03-18T04:45:14;100393.63;;;9.26;100.00
8653;BME280;4364;52.426;9.424;2023-03-18T04:47:43;100398.25;;;9.26;100.00
8653;BME280;4364;52.426;9.424;2023-03-18T04:50:13;100392.03;;;9.25;100.00
8653;BME280;4364;52.426;9.424;2023-03-18T04:52:40;100392.56;;;9.27;100.00
8653;BME280;4364;52.426;9.424;2023-03-18T04:55:11;100391.72;;;9.27;100.00
8653;BME280;4364;52.426;9.424;2023-03-18T04:57:39;100397.72;;;9.29;100.00
8653;BME280;4364;52.426;9.424;2023-03-18T05:00:14;100400.72;;;9.22;100.00
8653;BME280;4364;52.426;9.424;2023-03-18T05:02:44;100400.97;;;9.26;100.00
8653;BME280;4364;52.426;9.424;2023-03-18T05:05:11;100399.06;;;9.32;100.00
8653;BME280;4364;52.426;9.424;2023-03-18T05:07:43;100404.47;;;9.32;100.00
8653;BME280;4364;52.426;9.424;2023-03-18T05:10:13;100396.59;;;9.30;100.00
8653;BME280;4364;52.426;9.424;2023-03-18T05:12:40;100396.34;;;9.26;100.00
8653;BME280;4364;52.426;9.424;2023-03-18T05:15:09;100394.19;;;9.23;100.00
8653;BME280;4364;52.426;9.424;2023-03-18T05:17:41;100397.44;;;9.20;100.00
8653;BME280;4364;52.426;9.424;2023-03-18T05:20:09;100395.84;;;9.19;100.00
8653;BME280;4364;52.426;9.424;2023-03-18T05:22:36;100396.94;;;9.13;100.00
8653;BME280;4364;52.426;9.424;2023-03-18T05:25:11;100400.72;;;9.07;100.00
8653;BME280;4364;52.426;9.424;2023-03-18T05:27:39;100412.13;;;9.09;100.00
8653;BME280;4364;52.426;9.424;2023-03-18T05:30:13;100417.56;;;9.09;100.00
8653;BME280;4364;52.426;9.424;2023-03-18T05:32:44;100425.72;;;8.99;100.00
8653;BME280;4364;52.426;9.424;2023-03-18T05:35:12;100425.72;;;8.99;100.00
8653;BME280;4364;52.426;9.424;2023-03-18T05:37:49;100424.88;;;8.98;100.00
8653;BME280;4364;52.426;9.424;2023-03-18T05:40:16;100420.56;;;8.92;100.00
8653;BME280;4364;52.426;9.424;2023-03-18T05:42:55;100421.91;;;9.05;100.00
8653;BME280;4364;52.426;9.424;2023-03-18T05:45:32;100428.72;;;8.92;100.00
8653;BME280;4364;52.426;9.424;2023-03-18T05:47:59;100427.88;;;8.86;100.00
8653;BME280;4364;52.426;9.424;2023-03-18T05:50:33;100428.97;;;8.85;100.00
8653;BME280;4364;52.426;9.424;2023-03-18T05:53:04;100430.31;;;8.83;100.00
8653;BME280;4364;52.426;9.424;2023-03-18T05:55:35;100429.78;;;8.86;100.00
8653;BME280;4364;52.426;9.424;2023-03-18T05:58:02;100426.78;;;8.93;100.00
8653;BME280;4364;52.426;9.424;2023-03-18T06:00:31;100437.09;;;8.90;100.00
8653;BME280;4364;52.426;9.424;2023-03-18T06:02:59;100431.41;;;8.92;100.00
8653;BME280;4364;52.426;9.424;2023-03-18T06:05:27;100428.69;;;8.97;100.00
8653;BME280;4364;52.426;9.424;2023-03-18T06:07:55;100434.38;;;9.01;100.00
8653;BME280;4364;52.426;9.424;2023-03-18T06:10:22;100427.84;;;9.02;100.00
8653;BME280;4364;52.426;9.424;2023-03-18T06:12:51;100443.06;;;9.08;100.00
8653;BME280;4364;52.426;9.424;2023-03-18T06:15:18;100440.31;;;9.13;100.00
8653;BME280;4364;52.426;9.424;2023-03-18T06:17:45;100440.31;;;9.13;100.00
8653;BME280;4364;52.426;9.424;2023-03-18T06:20:13;100443.31;;;9.17;100.00
8653;BME280;4364;52.426;9.424;2023-03-18T06:22:41;100434.09;;;9.18;100.00
8653;BME280;4364;52.426;9.424;2023-03-18T06:25:09;100443.03;;;9.18;100.00
8653;BME280;4364;52.426;9.424;2023-03-18T06:27:37;100444.13;;;9.17;100.00
8653;BME280;4364;52.426;9.424;2023-03-18T06:30:05;100445.47;;;9.20;100.00
8653;BME280;4364;52.426;9.424;2023-03-18T06:32:34;100449.00;;;9.20;100.00
8653;BME280;4364;52.426;9.424;2023-03-18T06:35:01;100447.66;;;9.18;100.00
8653;BME280;4364;52.426;9.424;2023-03-18T06:37:29;100459.84;;;9.20;100.00
8653;BME280;4364;52.426;9.424;2023-03-18T06:39:55;100465.81;;;9.27;100.00
8653;BME280;4364;52.426;9.424;2023-03-18T06:42:22;100472.84;;;9.34;100.00
8653;BME280;4364;52.426;9.424;2023-03-18T06:44:58;100474.75;;;9.33;100.00
8653;BME280;4364;52.426;9.424;2023-03-18T06:47:38;100468.78;;;9.31;100.00
8653;BME280;4364;52.426;9.424;2023-03-18T06:50:05;100473.94;;;9.33;100.00
8653;BME280;4364;52.426;9.424;2023-03-18T06:52:35;100471.47;;;9.41;100.00
8653;BME280;4364;52.426;9.424;2023-03-18T06:55:10;100478.56;;;9.42;100.00
8653;BME280;4364;52.426;9.424;2023-03-18T06:57:39;100486.94;;;9.56;100.00
8653;BME280;4364;52.426;9.424;2023-03-18T07:00:08;100481.50;;;9.56;100.00
8653;BME280;4364;52.426;9.424;2023-03-18T07:02:36;100484.19;;;9.61;100.00
8653;BME280;4364;52.426;9.424;2023-03-18T07:05:06;100492.03;;;9.73;100.00
8653;BME280;4364;52.426;9.424;2023-03-18T07:07:35;100493.88;;;9.88;100.00
8653;BME280;4364;52.426;9.424;2023-03-18T07:10:06;100496.84;;;9.97;100.00
8653;BME280;4364;52.426;9.424;2023-03-18T07:12:34;100495.97;;;10.12;100.00
8653;BME280;4364;52.426;9.424;2023-03-18T07:15:02;100509.50;;;10.22;100.00
8653;BME280;4364;52.426;9.424;2023-03-18T07:17:28;100505.41;;;10.30;100.00
8653;BME280;4364;52.426;9.424;2023-03-18T07:19:55;100505.09;;;10.42;100.00
8653;BME280;4364;52.426;9.424;2023-03-18T07:22:22;100503.97;;;10.48;100.00
8653;BME280;4364;52.426;9.424;2023-03-18T07:24:49;100512.13;;;10.48;100.00
8653;BME280;4364;52.426;9.424;2023-03-18T07:27:17;100516.75;;;10.47;100.00
8653;BME280;4364;52.426;9.424;2023-03-18T07:29:43;100508.03;;;10.50;100.00
8653;BME280;4364;52.426;9.424;2023-03-18T07:32:10;100517.78;;;10.56;100.00
8653;BME280;4364;52.426;9.424;2023-03-18T07:34:36;100518.34;;;10.53;100.00
8653;BME280;4364;52.426;9.424;2023-03-18T07:37:03;100515.63;;;10.53;100.00
8653;BME280;4364;52.426;9.424;2023-03-18T07:39:29;100513.94;;;10.63;100.00
8653;BME280;4364;52.426;9.424;2023-03-18T07:41:57;100524.75;;;10.73;100.00
8653;BME280;4364;52.426;9.424;2023-03-18T07:44:28;100522.53;;;10.80;100.00
8653;BME280;4364;52.426;9.424;2023-03-18T07:46:54;100535.81;;;10.87;100.00
8653;BME280;4364;52.426;9.424;2023-03-18T07:49:21;100540.84;;;11.04;100.00
8653;BME280;4364;52.426;9.424;2023-03-18T07:51:49;100541.56;;;11.20;100.00
8653;BME280;4364;52.426;9.424;2023-03-18T07:54:15;100539.50;;;11.36;99.18
8653;BME280;4364;52.426;9.424;2023-03-18T07:56:43;100545.00;;;11.60;97.57
8653;BME280;4364;52.426;9.424;2023-03-18T07:59:09;100548.44;;;11.71;95.43
8653;BME280;4364;52.426;9.424;2023-03-18T08:01:37;100560.63;;;11.78;95.51
8653;BME280;4364;52.426;9.424;2023-03-18T08:04:05;100560.16;;;11.71;95.89
8653;BME280;4364;52.426;9.424;2023-03-18T08:06:32;100565.50;;;11.81;95.37
8653;BME280;4364;52.426;9.424;2023-03-18T08:09:00;100566.81;;;11.84;93.74
8653;BME280;4364;52.426;9.424;2023-03-18T08:11:27;100566.44;;;11.96;93.00
8653;BME280;4364;52.426;9.424;2023-03-18T08:13:54;100567.50;;;12.00;92.81
8653;BME280;4364;52.426;9.424;2023-03-18T08:16:20;100565.34;;;11.97;93.04
8653;BME280;4364;52.426;9.424;2023-03-18T08:18:48;100569.16;;;11.96;91.74
8653;BME280;4364;52.426;9.424;2023-03-18T08:21:14;100561.00;;;11.96;92.40
8653;BME280;4364;52.426;9.424;2023-03-18T08:23:41;100569.16;;;11.96;91.75
8653;BME280;4364;52.426;9.424;2023-03-18T08:26:08;100577.22;;;12.06;91.72
8653;BME280;4364;52.426;9.424;2023-03-18T08:28:35;100576.66;;;12.09;91.63
8653;BME280;4364;52.426;9.424;2023-03-18T08:31:02;100565.34;;;11.97;91.07
8653;BME280;4364;52.426;9.424;2023-03-18T08:33:30;100581.94;;;12.00;90.89
8653;BME280;4364;52.426;9.424;2023-03-18T08:35:57;100576.59;;;12.14;90.90
8653;BME280;4364;52.426;9.424;2023-03-18T08:38:24;100581.75;;;12.16;90.82
8653;BME280;4364;52.426;9.424;2023-03-18T08:40:51;100577.88;;;12.22;90.27
8653;BME280;4364;52.426;9.424;2023-03-18T08:43:17;100582.25;;;12.23;89.23
8653;BME280;4364;52.426;9.424;2023-03-18T08:45:53;100595.94;;;12.18;90.05
8653;BME280;4364;52.426;9.424;2023-03-18T08:48:21;100589.09;;;12.39;89.39
8653;BME280;4364;52.426;9.424;2023-03-18T08:50:48;100587.53;;;12.57;87.88
8653;BME280;4364;52.426;9.424;2023-03-18T08:53:15;100593.75;;;12.63;87.53
8653;BME280;4364;52.426;9.424;2023-03-18T08:55:41;100588.94;;;12.74;87.30
8653;BME280;4364;52.426;9.424;2023-03-18T08:58:08;100593.59;;;12.92;86.30
8653;BME280;4364;52.426;9.424;2023-03-18T09:00:37;100582.38;;;13.13;85.59
8653;BME280;4364;52.426;9.424;2023-03-18T09:03:04;100589.28;;;13.24;85.48
8653;BME280;4364;52.426;9.424;2023-03-18T09:05:31;100588.56;;;13.38;84.48
8653;BME280;4364;52.426;9.424;2023-03-18T09:07:58;100595.56;;;13.44;83.16
8653;BME280;4364;52.426;9.424;2023-03-18T09:10:26;100603.00;;;13.57;83.19
8653;BME280;4364;52.426;9.424;2023-03-18T09:12:52;100596.00;;;13.51;83.72
8653;BME280;4364;52.426;9.424;2023-03-18T09:15:19;100608.25;;;13.53;81.39
8653;BME280;4364;52.426;9.424;2023-03-18T09:17:46;100613.88;;;13.43;80.96
8653;BME280;4364;52.426;9.424;2023-03-18T09:20:33;100617.66;;;13.28;81.00
8653;BME280;4364;52.426;9.424;2023-03-18T09:23:01;100616.59;;;13.24;81.70
8653;BME280;4364;52.426;9.424;2023-03-18T09:25:29;100612.03;;;13.20;81.98
8653;BME280;4364;52.426;9.424;2023-03-18T09:27:56;100609.75;;;13.08;81.78
8653;BME280;4364;52.426;9.424;2023-03-18T09:30:22;100626.22;;;13.22;82.28
8653;BME280;4364;52.426;9.424;2023-03-18T09:32:50;100622.44;;;13.18;80.84
8653;BME280;4364;52.426;9.424;2023-03-18T09:35:17;100628.06;;;13.07;81.62
8653;BME280;4364;52.426;9.424;2023-03-18T09:37:43;100620.00;;;13.16;81.56
8653;BME280;4364;52.426;9.424;2023-03-18T09:40:31;100626.81;;;13.19;81.67
8653;BME280;4364;52.426;9.424;2023-03-18T09:53:36;100623.72;;;13.91;78.52
8653;BME280;4364;52.426;9.424;2023-03-18T09:56:12;100630.41;;;13.85;77.27
8653;BME280;4364;52.426;9.424;2023-03-18T09:58:47;100633.16;;;13.99;76.79
8653;BME280;4364;52.426;9.424;2023-03-18T10:01:18;100631.53;;;13.98;77.84
8653;BME280;4364;52.426;9.424;2023-03-18T10:04:05;100627.34;;;13.86;77.53
8653;BME280;4364;52.426;9.424;2023-03-18T10:06:39;100629.56;;;13.84;78.30
8653;BME280;4364;52.426;9.424;2023-03-18T10:09:16;100632.41;;;13.93;77.68
8653;BME280;4364;52.426;9.424;2023-03-18T10:11:49;100637.69;;;13.89;77.49
8653;BME280;4364;52.426;9.424;2023-03-18T10:17:20;100636.28;;;13.92;77.30
8653;BME280;4364;52.426;9.424;2023-03-18T10:19:54;100637.06;;;13.79;78.16
8653;BME280;4364;52.426;9.424;2023-03-18T10:25:18;100640.09;;;13.77;78.88
8653;BME280;4364;52.426;9.424;2023-03-18T10:33:39;100651.22;;;13.81;79.06
8653;BME280;4364;52.426;9.424;2023-03-18T10:36:23;100660.13;;;13.73;79.08
8653;BME280;4364;52.426;9.424;2023-03-18T10:38:53;100659.19;;;13.63;78.47
8653;BME280;4364;52.426;9.424;2023-03-18T10:41:29;100657.75;;;13.85;77.98
8653;BME280;4364;52.426;9.424;2023-03-18T10:44:46;100661.97;;;13.91;78.46
8653;BME280;4364;52.426;9.424;2023-03-18T10:49:39;100657.75;;;13.99;77.62
8653;BME280;4364;52.426;9.424;2023-03-18T10:52:27;100655.13;;;14.07;77.75
8653;BME280;4364;52.426;9.424;2023-03-18T10:54:56;100657.97;;;14.02;75.53
8653;BME280;4364;52.426;9.424;2023-03-18T10:57:22;100661.78;;;14.01;75.63
8653;BME280;4364;52.426;9.424;2023-03-18T10:59:50;100662.56;;;13.88;74.67
8653;BME280;4364;52.426;9.424;2023-03-18T11:02:35;100661.66;;;13.79;75.25
8653;BME280;4364;52.426;9.424;2023-03-18T11:05:27;100661.56;;;13.84;74.61
8653;BME280;4364;52.426;9.424;2023-03-18T11:08:03;100665.47;;;13.97;73.53
8653;BME280;4364;52.426;9.424;2023-03-18T11:10:36;100663.13;;;13.90;74.40
8653;BME280;4364;52.426;9.424;2023-03-18T11:13:05;100661.28;;;13.99;74.22
8653;BME280;4364;52.426;9.424;2023-03-18T11:15:36;100665.66;;;14.00;74.40
8653;BME280;4364;52.426;9.424;2023-03-18T11:18:03;100650.84;;;14.01;74.47
8653;BME280;4364;52.426;9.424;2023-03-18T11:20:38;100670.84;;;14.16;74.11
8653;BME280;4364;52.426;9.424;2023-03-18T11:23:15;100658.00;;;14.44;72.81
8653;BME280;4364;52.426;9.424;2023-03-18T11:25:46;100662.03;;;14.46;72.39
8653;BME280;4364;52.426;9.424;2023-03-18T11:28:32;100663.69;;;14.75;72.08
8653;BME280;4364;52.426;9.424;2023-03-18T11:31:04;100659.22;;;14.79;71.28
8653;BME280;4364;52.426;9.424;2023-03-18T11:33:31;100661.78;;;14.76;71.17
8653;BME280;4364;52.426;9.424;2023-03-18T11:36:11;100669.06;;;14.80;71.19
8653;BME280;4364;52.426;9.424;2023-03-18T11:38:39;100667.44;;;14.79;70.96
8653;BME280;4364;52.426;9.424;2023-03-18T11:41:15;100668.66;;;14.87;70.07
8653;BME280;4364;52.426;9.424;2023-03-18T11:44:05;100678.47;;;15.02;69.50
8653;BME280;4364;52.426;9.424;2023-03-18T11:49:03;100670.25;;;15.02;70.31
8653;BME280;4364;52.426;9.424;2023-03-18T11:51:38;100672.66;;;15.17;68.50
8653;BME280;4364;52.426;9.424;2023-03-18T12:00:36;100669.59;;;15.19;68.45
8653;BME280;4364;52.426;9.424;2023-03-18T12:03:37;100672.91;;;15.30;68.68
8653;BME280;4364;52.426;9.424;2023-03-18T12:06:18;100686.75;;;15.47;68.52
8653;BME280;4364;52.426;9.424;2023-03-18T12:09:16;100672.22;;;15.47;67.76
8653;BME280;4364;52.426;9.424;2023-03-18T12:12:28;100673.38;;;15.46;67.35
8653;BME280;4364;52.426;9.424;2023-03-18T12:17:52;100666.72;;;15.83;66.53
8653;BME280;4364;52.426;9.424;2023-03-18T12:28:56;100679.63;;;15.83;65.84
8653;BME280;4364;52.426;9.424;2023-03-18T12:34:48;100666.59;;;15.88;64.15
8653;BME280;4364;52.426;9.424;2023-03-18T12:37:32;100669.44;;;16.06;64.34
8653;BME280;4364;52.426;9.424;2023-03-18T12:45:14;100674.06;;;16.28;61.78
8653;BME280;4364;52.426;9.424;2023-03-18T12:47:53;100679.53;;;16.28;61.51
8653;BME280;4364;52.426;9.424;2023-03-18T12:53:03;100668.41;;;16.24;61.07
8653;BME280;4364;52.426;9.424;2023-03-18T12:55:35;100670.91;;;16.12;61.81
8653;BME280;4364;52.426;9.424;2023-03-18T12:58:23;100665.97;;;16.23;61.28
8653;BME280;4364;52.426;9.424;2023-03-18T13:01:19;100667.94;;;16.00;61.56
8653;BME280;4364;52.426;9.424;2023-03-18T13:03:50;100659.56;;;16.05;61.53
8653;BME280;4364;52.426;9.424;2023-03-18T13:06:41;100658.47;;;16.06;62.38
8653;BME280;4364;52.426;9.424;2023-03-18T13:12:09;100653.38;;;16.22;61.95
8653;BME280;4364;52.426;9.424;2023-03-18T13:17:21;100656.66;;;16.33;62.21
8653;BME280;4364;52.426;9.424;2023-03-18T13:19:49;100660.97;;;16.25;62.08
8653;BME280;4364;52.426;9.424;2023-03-18T13:27:48;100665.69;;;16.33;62.40
8653;BME280;4364;52.426;9.424;2023-03-18T13:30:34;100670.00;;;16.25;62.28
8653;BME280;4364;52.426;9.424;2023-03-18T13:39:01;100655.09;;;16.49;61.41
8653;BME280;4364;52.426;9.424;2023-03-18T13:41:44;100649.41;;;16.45;59.84
8653;BME280;4364;52.426;9.424;2023-03-18T13:44:21;100651.59;;;16.66;60.13
8653;BME280;4364;52.426;9.424;2023-03-18T13:46:59;100642.53;;;16.65;59.57
8653;BME280;4364;52.426;9.424;2023-03-18T13:49:29;100647.09;;;16.79;59.55
8653;BME280;4364;52.426;9.424;2023-03-18T13:52:00;100647.78;;;16.93;59.40
8653;BME280;4364;52.426;9.424;2023-03-18T13:54:34;100651.34;;;16.94;59.80
8653;BME280;4364;52.426;9.424;2023-03-18T13:57:16;100656.19;;;17.06;60.09
8653;BME280;4364;52.426;9.424;2023-03-18T13:59:46;100653.31;;;17.11;59.66
8653;BME280;4364;52.426;9.424;2023-03-18T14:05:32;100640.47;;;16.80;58.17
8653;BME280;4364;52.426;9.424;2023-03-18T14:08:31;100642.72;;;16.69;59.16
8653;BME280;4364;52.426;9.424;2023-03-18T14:13:43;100634.44;;;16.60;58.38
8653;BME280;4364;52.426;9.424;2023-03-18T14:16:12;100637.97;;;16.52;57.36
8653;BME280;4364;52.426;9.424;2023-03-18T14:18:40;100635.59;;;16.59;56.97
8653;BME280;4364;52.426;9.424;2023-03-18T14:21:22;100635.78;;;16.72;56.75
8653;BME280;4364;52.426;9.424;2023-03-18T14:26:40;100644.53;;;16.82;54.91
8653;BME280;4364;52.426;9.424;2023-03-18T14:41:56;100634.09;;;16.44;56.27
8653;BME280;4364;52.426;9.424;2023-03-18T14:44:42;100631.13;;;16.32;56.49
8653;BME280;4364;52.426;9.424;2023-03-18T14:50:40;100621.94;;;16.28;55.65
8653;BME280;4364;52.426;9.424;2023-03-18T14:55:36;100622.53;;;16.16;55.64
8653;BME280;4364;52.426;9.424;2023-03-18T14:58:03;100634.47;;;16.20;55.90
8653;BME280;4364;52.426;9.424;2023-03-18T15:00:34;100632.41;;;16.26;55.91
8653;BME280;4364;52.426;9.424;2023-03-18T15:03:08;100639.16;;;16.20;55.90
8653;BME280;4364;52.426;9.424;2023-03-18T15:05:41;100631.50;;;15.99;56.59
8653;BME280;4364;52.426;9.424;2023-03-18T15:08:13;100624.72;;;16.05;57.51
8653;BME280;4364;52.426;9.424;2023-03-18T15:10:48;100636.88;;;16.13;57.49
8653;BME280;4364;52.426;9.424;2023-03-18T15:13:19;100643.84;;;16.19;57.40
8653;BME280;4364;52.426;9.424;2023-03-18T15:15:47;100632.38;;;16.17;57.23